
Distance (Route):
Temperature : -51.1°C
Humidity : 0.6%
Pressure : -1.0hPa| Receiver | Frames | First received | Last received |
|---|---|---|---|
| DJ2DS-15 | 129 | 2026-09-02 00:32:40 | 2026-09-02 01:07:24 |
| Receiver | Date | Latitude | Longitude | Direction | Speed | Altitude | Climb | Temperature | Humidity | Pressure | Voltage | Killtimer | Uptime | BKT | XDATA |
|---|---|---|---|---|---|---|---|---|---|---|---|---|---|---|---|
| DJ2DS-15 | 2026-09-02 01:07:24 | 54.91019 | -0.56251 | 107° | 60km/h | 17586m | -6.0m/s | -51.1°C | 0.6% | -1.0hPa | 2.6V | 00:00:00 | 00:00:00 | 00:00:00 | |
| DJ2DS-15 | 2026-09-02 01:06:07 | 54.90805 | -0.57664 | 75° | 51km/h | 18061m | -6.7m/s | -52.6°C | 3.6% | 0hPa | 2.6V | 00:00:00 | 02:17:21 | 00:00:00 | |
| DJ2DS-15 | 2026-09-02 01:05:47 | 54.90814 | -0.58110 | 80° | 47km/h | 18200m | -6.6m/s | -51.2°C | 3.3% | 0hPa | 2.6V | 00:00:00 | 02:17:01 | 00:00:00 | |
| DJ2DS-15 | 2026-09-02 01:05:27 | 54.90730 | -0.58485 | 89° | 46km/h | 18342m | -7.0m/s | -51.2°C | 3.2% | 0hPa | 2.6V | 00:00:00 | 02:16:41 | 00:00:00 | |
| DJ2DS-15 | 2026-09-02 01:05:07 | 54.90762 | -0.58895 | 85° | 46km/h | 18490m | -7.0m/s | -51.6°C | 3.4% | 0hPa | 2.5V | 00:00:00 | 02:16:21 | 00:00:00 | |
| DJ2DS-15 | 2026-09-02 01:05:00 | 54.90732 | -0.59097 | 67° | 51km/h | 18549m | -7.7m/s | -51.9°C | 0.6% | -1.0hPa | 2.5V | 00:00:00 | 00:00:00 | 00:00:00 | |
| DJ2DS-15 | 2026-09-02 01:04:47 | 54.90708 | -0.59274 | 102° | 47km/h | 18637m | -7.8m/s | -50.2°C | 3.2% | 0hPa | 2.5V | 00:00:00 | 02:16:01 | 00:00:00 | |
| DJ2DS-15 | 2026-09-02 01:04:27 | 54.90818 | -0.59653 | 108° | 51km/h | 18784m | -7.2m/s | -49.6°C | 3.0% | 0hPa | 2.5V | 00:00:00 | 02:15:41 | 00:00:00 | |
| DJ2DS-15 | 2026-09-02 01:04:24 | 54.90832 | -0.59766 | 97° | 64km/h | 18813m | -7.2m/s | -49.8°C | 0.5% | -1.0hPa | 2.5V | 00:00:00 | 00:00:00 | 00:00:00 | |
| DJ2DS-15 | 2026-09-02 01:04:07 | 54.90842 | -0.60083 | 117° | 55km/h | 18928m | -7.0m/s | -49.3°C | 3.0% | 0hPa | 2.5V | 00:00:00 | 02:15:21 | 00:00:00 | |
| DJ2DS-15 | 2026-09-02 01:03:47 | 54.90970 | -0.60493 | 102° | 60km/h | 19073m | -7.2m/s | -49.9°C | 3.0% | 0hPa | 2.5V | 00:00:00 | 02:15:01 | 00:00:00 | |
| DJ2DS-15 | 2026-09-02 01:03:27 | 54.90953 | -0.61004 | 84° | 37km/h | 19221m | -7.2m/s | -50.4°C | 3.3% | 0hPa | 2.5V | 08:16:00 | 02:14:41 | 00:00:00 | |
| DJ2DS-15 | 2026-09-02 01:03:07 | 54.91043 | -0.61267 | 134° | 49km/h | 19368m | -7.0m/s | -49.0°C | 2.9% | 0hPa | 2.5V | 00:00:00 | 02:14:21 | 00:00:00 | |
| DJ2DS-15 | 2026-09-02 01:02:47 | 54.91105 | -0.61640 | 70° | 16km/h | 19504m | -6.8m/s | -49.1°C | 2.9% | 0hPa | 2.5V | 00:00:00 | 02:14:01 | 00:00:00 | |
| DJ2DS-15 | 2026-09-02 01:02:27 | 54.91093 | -0.61694 | 146° | 33km/h | 19648m | -7.2m/s | -49.3°C | 2.9% | 0hPa | 2.5V | 00:00:00 | 02:13:41 | 00:00:00 | |
| DJ2DS-15 | 2026-09-02 01:02:07 | 54.91069 | -0.61950 | 39° | 24km/h | 19795m | -7.6m/s | -50.3°C | 3.1% | 0hPa | 2.6V | 00:00:00 | 02:13:21 | 00:00:00 | |
| DJ2DS-15 | 2026-09-02 01:01:23 | 54.91007 | -0.62364 | 58° | 31km/h | 20119m | -7.6m/s | -50.7°C | 0.6% | -1.0hPa | 2.6V | 00:00:00 | 00:00:00 | 00:00:00 | |
| DJ2DS-15 | 2026-09-02 01:01:05 | 54.91032 | -0.62496 | 128° | 47km/h | 20252m | -7.9m/s | -50.5°C | 3.2% | 0hPa | 2.6V | 00:00:00 | 02:12:19 | 00:00:00 | |
| DJ2DS-15 | 2026-09-02 01:00:48 | 54.91068 | -0.62849 | 72° | 40km/h | 20390m | -7.8m/s | -50.6°C | 0.5% | -1.0hPa | 2.6V | 00:00:00 | 00:00:00 | 00:00:00 | |
| DJ2DS-15 | 2026-09-02 01:00:45 | 54.91061 | -0.62880 | 65° | 16km/h | 20406m | -7.8m/s | -50.2°C | 3.1% | 0hPa | 2.6V | 00:00:00 | 02:11:59 | 00:00:00 | |
| DJ2DS-15 | 2026-09-02 01:00:25 | 54.91021 | -0.62922 | 179° | 27km/h | 20565m | -8.0m/s | -50.7°C | 3.1% | 0hPa | 2.5V | 00:00:00 | 02:11:39 | 00:00:00 | |
| DJ2DS-15 | 2026-09-02 01:00:05 | 54.91046 | -0.63136 | 59° | 26km/h | 20729m | -8.7m/s | -51.7°C | 3.4% | 0hPa | 2.5V | 00:00:00 | 02:11:19 | 00:00:00 | |
| DJ2DS-15 | 2026-09-02 00:59:45 | 54.90944 | -0.63243 | 133° | 35km/h | 20896m | -8.7m/s | -51.7°C | 3.5% | 0hPa | 2.5V | 08:20:00 | 02:10:59 | 00:00:00 | |
| DJ2DS-15 | 2026-09-02 00:59:35 | 54.90984 | -0.63334 | 116° | 40km/h | 20982m | -8.6m/s | -51.2°C | 0.5% | -1.0hPa | 2.5V | 00:00:00 | 00:00:00 | 00:00:00 | |
| DJ2DS-15 | 2026-09-02 00:59:25 | 54.90993 | -0.63521 | 76° | 22km/h | 21068m | -8.6m/s | -50.8°C | 3.3% | 0hPa | 2.5V | 00:00:00 | 02:10:39 | 00:00:00 | |
| DJ2DS-15 | 2026-09-02 00:59:05 | 54.90936 | -0.63595 | 255° | 20km/h | 21241m | -9.2m/s | -50.5°C | 3.1% | 0hPa | 2.5V | 00:00:00 | 02:10:19 | 00:00:00 | |
| DJ2DS-15 | 2026-09-02 00:58:45 | 54.90998 | -0.63658 | 99° | 40km/h | 21415m | -9.7m/s | -50.5°C | 3.2% | 0hPa | 2.5V | 00:00:00 | 02:09:59 | 00:00:00 | |
| DJ2DS-15 | 2026-09-02 00:58:25 | 54.90886 | -0.63926 | 16° | 16km/h | 21596m | -8.8m/s | -51.0°C | 3.5% | 0hPa | 2.5V | 00:00:00 | 02:09:39 | 00:00:00 | |
| DJ2DS-15 | 2026-09-02 00:58:23 | 54.90872 | -0.63934 | 13° | 24km/h | 21612m | -8.7m/s | -50.8°C | 0.6% | -1.0hPa | 2.5V | 00:00:00 | 00:00:00 | 00:00:00 | |
| DJ2DS-15 | 2026-09-02 00:58:05 | 54.90878 | -0.63963 | 133° | 38km/h | 21769m | -8.6m/s | -49.7°C | 3.1% | 0hPa | 2.5V | 00:00:00 | 02:09:19 | 00:00:00 | |
| DJ2DS-15 | 2026-09-02 00:57:45 | 54.90867 | -0.64267 | 39° | 29km/h | 21945m | -8.2m/s | -49.9°C | 3.1% | 0hPa | 2.5V | 00:00:00 | 02:08:59 | 00:00:00 | |
| DJ2DS-15 | 2026-09-02 00:57:25 | 54.90729 | -0.64256 | 230° | 27km/h | 22116m | -8.4m/s | -50.1°C | 3.1% | 0hPa | 2.6V | 00:00:00 | 02:08:39 | 00:00:00 | |
| DJ2DS-15 | 2026-09-02 00:57:05 | 54.90684 | -0.64468 | 35° | 24km/h | 22296m | -8.7m/s | -51.1°C | 3.3% | 0hPa | 2.6V | 00:00:00 | 02:08:19 | 00:00:00 | |
| DJ2DS-15 | 2026-09-02 00:56:45 | 54.90620 | -0.64473 | 160° | 37km/h | 22475m | -9.3m/s | -51.8°C | 3.5% | 0hPa | 2.6V | 08:23:00 | 02:07:59 | 00:00:00 | |
| DJ2DS-15 | 2026-09-02 00:56:25 | 54.90593 | -0.64734 | 25° | 24km/h | 22667m | -9.9m/s | -51.6°C | 3.5% | 0hPa | 2.6V | 00:00:00 | 02:07:39 | 00:00:00 | |
| DJ2DS-15 | 2026-09-02 00:56:05 | 54.90539 | -0.64784 | 129° | 42km/h | 22861m | -9.5m/s | -51.4°C | 3.3% | 0hPa | 2.6V | 00:00:00 | 02:07:19 | 00:00:00 | |
| DJ2DS-15 | 2026-09-02 00:55:59 | 54.90557 | -0.64899 | 85° | 42km/h | 22929m | -9.9m/s | -51.8°C | 0.6% | -1.0hPa | 2.6V | 00:00:00 | 00:00:00 | 00:00:00 | |
| DJ2DS-15 | 2026-09-02 00:55:45 | 54.90481 | -0.65076 | 6° | 20km/h | 23058m | -9.8m/s | -51.5°C | 3.5% | 0hPa | 2.6V | 00:00:00 | 02:06:59 | 00:00:00 | |
| DJ2DS-15 | 2026-09-02 00:55:25 | 54.90474 | -0.65032 | 136° | 40km/h | 23257m | -10.2m/s | -51.0°C | 3.3% | 0hPa | 2.6V | 00:00:00 | 02:06:39 | 00:00:00 | |
| DJ2DS-15 | 2026-09-02 00:55:23 | 54.90488 | -0.65062 | 119° | 33km/h | 23287m | -10.4m/s | -51.0°C | 0.5% | -1.0hPa | 2.6V | 00:00:00 | 00:00:00 | 00:00:00 | |
| DJ2DS-15 | 2026-09-02 00:55:05 | 54.90444 | -0.65326 | 14° | 22km/h | 23456m | -9.7m/s | -50.8°C | 3.2% | 0hPa | 2.6V | 00:00:00 | 02:06:19 | 00:00:00 | |
| DJ2DS-15 | 2026-09-02 00:54:46 | 54.90463 | -0.65320 | 111° | 29km/h | 23648m | -10.6m/s | -51.3°C | 0.5% | -1.0hPa | 2.6V | 00:00:00 | 00:00:00 | 00:00:00 | |
| DJ2DS-15 | 2026-09-02 00:54:45 | 54.90465 | -0.65332 | 107° | 38km/h | 23659m | -10.4m/s | -51.2°C | 3.4% | 0hPa | 2.6V | 00:00:00 | 02:05:59 | 00:00:00 | |
| DJ2DS-15 | 2026-09-02 00:54:25 | 54.90348 | -0.65553 | 355° | 26km/h | 23861m | -9.9m/s | -51.2°C | 3.4% | 0hPa | 2.5V | 00:00:00 | 02:05:39 | 00:00:00 | |
| DJ2DS-15 | 2026-09-02 00:54:05 | 54.90385 | -0.65718 | 75° | 31km/h | 24076m | -11.0m/s | -50.8°C | 3.4% | 0hPa | 2.5V | 00:00:00 | 02:05:19 | 00:00:00 | |
| DJ2DS-15 | 2026-09-02 00:53:45 | 54.90282 | -0.65847 | 194° | 38km/h | 24286m | -11.3m/s | -50.6°C | 3.4% | 0hPa | 2.5V | 08:26:00 | 02:04:59 | 00:00:00 | |
| DJ2DS-15 | 2026-09-02 00:53:34 | 54.90353 | -0.65926 | 117° | 47km/h | 24412m | -12.1m/s | -50.0°C | 0.5% | -1.0hPa | 2.5V | 00:00:00 | 00:00:00 | 00:00:00 | |
| DJ2DS-15 | 2026-09-02 00:53:05 | 54.90422 | -0.66071 | 181° | 31km/h | 24742m | -11.7m/s | -49.4°C | 3.1% | 0hPa | 2.5V | 00:00:00 | 02:04:19 | 00:00:00 | |
| DJ2DS-15 | 2026-09-02 00:52:59 | 54.90492 | -0.66112 | 136° | 31km/h | 24821m | -11.9m/s | -49.6°C | 0.5% | -1.0hPa | 2.5V | 00:00:00 | 00:00:00 | 00:00:00 | |
| DJ2DS-15 | 2026-09-02 00:52:45 | 54.90471 | -0.66186 | 322° | 35km/h | 24970m | -11.3m/s | -49.7°C | 3.2% | 0hPa | 2.5V | 00:00:00 | 02:03:59 | 00:00:00 | |
| DJ2DS-15 | 2026-09-02 00:52:25 | 54.90571 | -0.66173 | 107° | 29km/h | 25208m | -12.4m/s | -49.9°C | 3.2% | 0hPa | 2.6V | 00:00:00 | 02:03:39 | 00:00:00 | |
| DJ2DS-15 | 2026-09-02 00:52:05 | 54.90546 | -0.66277 | 218° | 44km/h | 25446m | -12.6m/s | -48.7°C | 3.0% | 0hPa | 2.6V | 00:00:00 | 02:03:19 | 00:00:00 | |
| DJ2DS-15 | 2026-09-02 00:51:46 | 54.90680 | -0.66428 | 63° | 37km/h | 25685m | -13.4m/s | -49.1°C | 0.5% | -1.0hPa | 2.6V | 00:00:00 | 00:00:00 | 00:00:00 | |
| DJ2DS-15 | 2026-09-02 00:51:45 | 54.90675 | -0.66442 | 56° | 29km/h | 25698m | -13.2m/s | -49.0°C | 3.1% | 0hPa | 2.6V | 00:00:00 | 02:02:59 | 00:00:00 | |
| DJ2DS-15 | 2026-09-02 00:51:25 | 54.90707 | -0.66394 | 167° | 37km/h | 25953m | -13.3m/s | -48.6°C | 3.0% | 0hPa | 2.5V | 00:00:00 | 02:02:39 | 00:00:00 | |
| DJ2DS-15 | 2026-09-02 00:51:10 | 54.90718 | -0.66571 | 17° | 37km/h | 26143m | -12.9m/s | -48.6°C | 0.4% | -1.0hPa | 2.5V | 00:00:00 | 00:00:00 | 00:00:00 | |
| DJ2DS-15 | 2026-09-02 00:51:05 | 54.90681 | -0.66560 | 315° | 40km/h | 26203m | -12.8m/s | -48.8°C | 3.1% | 0hPa | 2.5V | 00:00:00 | 02:02:19 | 00:00:00 | |
| DJ2DS-15 | 2026-09-02 00:50:45 | 54.90814 | -0.66622 | 101° | 33km/h | 26465m | -12.8m/s | -48.2°C | 3.0% | 0hPa | 2.5V | 08:29:00 | 02:01:59 | 00:00:00 | |
| DJ2DS-15 | 2026-09-02 00:50:34 | 54.90780 | -0.66668 | 294° | 31km/h | 26605m | -13.8m/s | -47.7°C | 0.4% | -1.0hPa | 2.5V | 00:00:00 | 00:00:00 | 00:00:00 | |
| DJ2DS-15 | 2026-09-02 00:50:25 | 54.90812 | -0.66538 | 209° | 40km/h | 26725m | -13.6m/s | -48.1°C | 2.9% | 0hPa | 2.5V | 00:00:00 | 02:01:39 | 00:00:00 | |
| DJ2DS-15 | 2026-09-02 00:50:05 | 54.90866 | -0.66717 | 346° | 37km/h | 26997m | -14.5m/s | -48.7°C | 3.1% | 0hPa | 2.5V | 00:00:00 | 02:01:19 | 00:00:00 | |
| DJ2DS-15 | 2026-09-02 00:49:58 | 54.90847 | -0.66641 | 247° | 37km/h | 27097m | -14.2m/s | -48.6°C | 0.5% | -1.0hPa | 2.5V | 00:00:00 | 00:00:00 | 00:00:00 | |
| DJ2DS-15 | 2026-09-02 00:49:45 | 54.90943 | -0.66657 | 93° | 29km/h | 27288m | -13.8m/s | -47.9°C | 2.9% | 0hPa | 2.5V | 00:00:00 | 02:00:59 | 00:00:00 | |
| DJ2DS-15 | 2026-09-02 00:49:25 | 54.90869 | -0.66616 | 313° | 11km/h | 27630m | -19.4m/s | -47.9°C | 2.9% | 0hPa | 2.5V | 00:00:00 | 02:00:39 | 00:00:00 | |
| DJ2DS-15 | 2026-09-02 00:49:22 | 54.90857 | -0.66599 | 354° | 7km/h | 27634m | 5.3m/s | -48.0°C | 0.4% | -1.0hPa | 2.5V | 00:00:00 | 00:00:00 | 00:00:00 | |
| DJ2DS-15 | 2026-09-02 00:49:06 | 54.90839 | -0.66546 | 352° | 11km/h | 27555m | 4.1m/s | -48.2°C | 2.9% | 0hPa | 2.5V | 00:00:00 | 02:00:19 | 00:00:00 | |
| DJ2DS-15 | 2026-09-02 00:48:46 | 54.90848 | -0.66454 | 269° | 16km/h | 27451m | 3.8m/s | -48.2°C | 0.4% | -1.0hPa | 2.5V | 00:00:00 | 00:00:00 | 00:00:00 | |
| DJ2DS-15 | 2026-09-02 00:48:45 | 54.90848 | -0.66453 | 270° | 13km/h | 27451m | 3.8m/s | -48.2°C | 2.9% | 0hPa | 2.5V | 00:00:00 | 01:59:59 | 00:00:00 | |
| DJ2DS-15 | 2026-09-02 00:48:25 | 54.90875 | -0.66379 | 199° | 9km/h | 27347m | 5.2m/s | -48.0°C | 2.9% | 0hPa | 2.5V | 00:00:00 | 01:59:39 | 00:00:00 | |
| DJ2DS-15 | 2026-09-02 00:48:05 | 54.90888 | -0.66344 | 10° | 5km/h | 27242m | 4.9m/s | -48.6°C | 3.0% | 0hPa | 2.5V | 00:00:00 | 01:59:19 | 00:00:00 | |
| DJ2DS-15 | 2026-09-02 00:47:45 | 54.90886 | -0.66361 | 155° | 7km/h | 27136m | 5.6m/s | -49.0°C | 3.1% | 0hPa | 2.5V | 00:00:00 | 01:58:59 | 08:30:00 | |
| DJ2DS-15 | 2026-09-02 00:47:34 | 54.90911 | -0.66368 | 217° | 5km/h | 27069m | 4.6m/s | -49.2°C | 0.5% | -1.0hPa | 2.5V | 00:00:00 | 00:00:00 | 00:00:00 | |
| DJ2DS-15 | 2026-09-02 00:47:25 | 54.90923 | -0.66366 | 154° | 9km/h | 27026m | 6.0m/s | -49.0°C | 3.1% | 0hPa | 2.5V | 00:00:00 | 01:58:39 | 00:00:00 | |
| DJ2DS-15 | 2026-09-02 00:47:05 | 54.90960 | -0.66400 | 160° | 9km/h | 26915m | 5.9m/s | -48.8°C | 3.1% | 0hPa | 2.5V | 00:00:00 | 01:58:19 | 00:00:00 | |
| DJ2DS-15 | 2026-09-02 00:46:45 | 54.91000 | -0.66406 | 194° | 7km/h | 26804m | 5.5m/s | -48.4°C | 3.0% | 0hPa | 2.5V | 00:00:00 | 01:57:59 | 00:00:00 | |
| DJ2DS-15 | 2026-09-02 00:46:25 | 54.91026 | -0.66393 | 239° | 15km/h | 26693m | 4.8m/s | -48.2°C | 2.9% | 0hPa | 2.5V | 00:00:00 | 01:57:39 | 00:00:00 | |
| DJ2DS-15 | 2026-09-02 00:46:21 | 54.91036 | -0.66387 | 174° | 13km/h | 26671m | 5.1m/s | -48.3°C | 0.4% | -1.0hPa | 2.5V | 00:00:00 | 00:00:00 | 00:00:00 | |
| DJ2DS-15 | 2026-09-02 00:46:05 | 54.91094 | -0.66389 | 180° | 20km/h | 26580m | 4.0m/s | -48.6°C | 2.9% | 0hPa | 2.5V | 00:00:00 | 01:57:19 | 00:00:00 | |
| DJ2DS-15 | 2026-09-02 00:45:45 | 54.91183 | -0.66445 | 142° | 18km/h | 26470m | 5.6m/s | -49.3°C | 3.1% | 0hPa | 2.5V | 00:00:00 | 01:56:59 | 00:00:00 | |
| DJ2DS-15 | 2026-09-02 00:45:25 | 54.91251 | -0.66563 | 133° | 15km/h | 26360m | 5.1m/s | -49.4°C | 3.1% | 0hPa | 2.6V | 00:00:00 | 01:56:39 | 00:00:00 | |
| DJ2DS-15 | 2026-09-02 00:45:09 | 54.91270 | -0.66666 | 125° | 9km/h | 26272m | 6.4m/s | -49.4°C | 0.5% | -1.0hPa | 2.6V | 00:00:00 | 00:00:00 | 00:00:00 | |
| DJ2DS-15 | 2026-09-02 00:45:05 | 54.91272 | -0.66683 | 70° | 9km/h | 26249m | 5.4m/s | -49.3°C | 3.2% | 0hPa | 2.6V | 00:00:00 | 01:56:19 | 00:00:00 | |
| DJ2DS-15 | 2026-09-02 00:44:45 | 54.91296 | -0.66738 | 186° | 13km/h | 26131m | 4.8m/s | -48.8°C | 3.1% | 0hPa | 2.6V | 00:00:00 | 01:55:59 | 08:30:00 | |
| DJ2DS-15 | 2026-09-02 00:44:33 | 54.91332 | -0.66734 | 184° | 13km/h | 26061m | 5.6m/s | -48.9°C | 0.5% | -1.0hPa | 2.5V | 00:00:00 | 00:00:00 | 00:00:00 | |
| DJ2DS-15 | 2026-09-02 00:44:25 | 54.91360 | -0.66742 | 168° | 15km/h | 26014m | 7.0m/s | -49.0°C | 3.0% | 0hPa | 2.5V | 00:00:00 | 01:55:39 | 00:00:00 | |
| DJ2DS-15 | 2026-09-02 00:44:05 | 54.91426 | -0.66784 | 136° | 18km/h | 25894m | 5.9m/s | -49.0°C | 3.0% | 0hPa | 2.5V | 00:00:00 | 01:55:19 | 00:00:00 | |
| DJ2DS-15 | 2026-09-02 00:43:57 | 54.91450 | -0.66817 | 111° | 15km/h | 25848m | 5.0m/s | -49.3°C | 0.5% | -1.0hPa | 2.5V | 00:00:00 | 00:00:00 | 00:00:00 | |
| DJ2DS-15 | 2026-09-02 00:43:45 | 54.91475 | -0.66908 | 109° | 13km/h | 25775m | 5.6m/s | -49.3°C | 3.2% | 0hPa | 2.5V | 00:00:00 | 01:54:59 | 00:00:00 | |
| DJ2DS-15 | 2026-09-02 00:43:25 | 54.91524 | -0.66982 | 154° | 16km/h | 25660m | 6.1m/s | -49.0°C | 3.1% | 0hPa | 2.7V | 00:00:00 | 01:54:39 | 00:00:00 | |
| DJ2DS-15 | 2026-09-02 00:43:21 | 54.91539 | -0.66995 | 159° | 20km/h | 25636m | 5.3m/s | -49.0°C | 0.5% | -1.0hPa | 2.7V | 00:00:00 | 00:00:00 | 00:00:00 | |
| DJ2DS-15 | 2026-09-02 00:43:05 | 54.91603 | -0.67043 | 142° | 20km/h | 25543m | 4.3m/s | -48.9°C | 3.1% | 0hPa | 2.7V | 00:00:00 | 01:54:19 | 00:00:00 | |
| DJ2DS-15 | 2026-09-02 00:42:45 | 54.91689 | -0.67112 | 158° | 22km/h | 25430m | 5.6m/s | -49.2°C | 3.0% | 0hPa | 2.7V | 00:00:00 | 01:53:59 | 00:00:00 | |
| DJ2DS-15 | 2026-09-02 00:42:25 | 54.91759 | -0.67249 | 105° | 18km/h | 25324m | 6.0m/s | -50.2°C | 3.2% | 0hPa | 2.5V | 00:00:00 | 01:53:39 | 00:00:00 | |
| DJ2DS-15 | 2026-09-02 00:42:09 | 54.91777 | -0.67370 | 94° | 18km/h | 25238m | 5.0m/s | -50.2°C | 0.5% | -1.0hPa | 2.5V | 00:00:00 | 00:00:00 | 00:00:00 | |
| DJ2DS-15 | 2026-09-02 00:42:05 | 54.91783 | -0.67394 | 139° | 9km/h | 25217m | 6.1m/s | -50.2°C | 3.3% | 0hPa | 2.5V | 00:00:00 | 01:53:19 | 00:00:00 | |
| DJ2DS-15 | 2026-09-02 00:41:45 | 54.91811 | -0.67453 | 128° | 11km/h | 25114m | 5.9m/s | -50.2°C | 3.2% | 0hPa | 2.5V | 00:00:00 | 01:52:59 | 08:30:00 | |
| DJ2DS-15 | 2026-09-02 00:41:25 | 54.91852 | -0.67501 | 178° | 11km/h | 25009m | 4.8m/s | -49.9°C | 3.2% | 0hPa | 2.5V | 00:00:00 | 01:52:39 | 00:00:00 | |
| DJ2DS-15 | 2026-09-02 00:41:05 | 54.91903 | -0.67480 | 188° | 22km/h | 24900m | 5.7m/s | -50.2°C | 3.2% | 0hPa | 2.5V | 00:00:00 | 01:52:19 | 00:00:00 | |
| DJ2DS-15 | 2026-09-02 00:40:45 | 54.91999 | -0.67471 | 179° | 20km/h | 24795m | 6.1m/s | -50.2°C | 3.2% | 0hPa | 2.5V | 00:00:00 | 01:51:59 | 00:00:00 | |
| DJ2DS-15 | 2026-09-02 00:40:25 | 54.92073 | -0.67546 | 157° | 27km/h | 24688m | 4.6m/s | -50.2°C | 3.2% | 0hPa | 2.5V | 00:00:00 | 01:51:39 | 00:00:00 | |
| DJ2DS-15 | 2026-09-02 00:40:05 | 54.92153 | -0.67736 | 125° | 22km/h | 24579m | 4.9m/s | -50.2°C | 3.2% | 0hPa | 2.5V | 00:00:00 | 01:51:19 | 00:00:00 | |
| DJ2DS-15 | 2026-09-02 00:39:45 | 54.92192 | -0.67926 | 94° | 16km/h | 24460m | 5.4m/s | -50.2°C | 0.5% | -1.0hPa | 2.5V | 00:00:00 | 00:00:00 | 00:00:00 | |
| DJ2DS-15 | 2026-09-02 00:39:25 | 54.92190 | -0.68062 | 83° | 22km/h | 24357m | 4.7m/s | -50.7°C | 3.3% | 0hPa | 2.5V | 00:00:00 | 01:50:39 | 00:00:00 | |
| DJ2DS-15 | 2026-09-02 00:39:05 | 54.92170 | -0.68252 | 78° | 22km/h | 24249m | 4.4m/s | -50.9°C | 3.3% | 0hPa | 2.5V | 00:00:00 | 01:50:19 | 00:00:00 | |
| DJ2DS-15 | 2026-09-02 00:38:45 | 54.92151 | -0.68441 | 97° | 22km/h | 24139m | 6.0m/s | -51.2°C | 3.3% | 0hPa | 2.5V | 00:00:00 | 01:49:59 | 08:30:00 | |
| DJ2DS-15 | 2026-09-02 00:38:33 | 54.92122 | -0.68544 | 85° | 18km/h | 24065m | 5.4m/s | -51.4°C | 0.6% | -1.0hPa | 2.5V | 00:00:00 | 00:00:00 | 00:00:00 | |
| DJ2DS-15 | 2026-09-02 00:38:25 | 54.92111 | -0.68611 | 51° | 26km/h | 24025m | 5.4m/s | -51.4°C | 3.4% | 0hPa | 2.5V | 00:00:00 | 01:49:39 | 00:00:00 | |
| DJ2DS-15 | 2026-09-02 00:38:05 | 54.92080 | -0.68825 | 85° | 24km/h | 23916m | 5.7m/s | -51.6°C | 3.5% | 0hPa | 2.5V | 00:00:00 | 01:49:19 | 00:00:00 | |
| DJ2DS-15 | 2026-09-02 00:37:56 | 54.92058 | -0.68918 | 48° | 22km/h | 23867m | 5.0m/s | -51.6°C | 0.6% | -1.0hPa | 2.5V | 00:00:00 | 00:00:00 | 00:00:00 | |
| DJ2DS-15 | 2026-09-02 00:37:45 | 54.92020 | -0.69004 | 49° | 15km/h | 23807m | 5.3m/s | -51.5°C | 3.4% | 0hPa | 2.5V | 00:00:00 | 01:48:59 | 00:00:00 | |
| DJ2DS-15 | 2026-09-02 00:37:25 | 54.91972 | -0.69097 | 28° | 9km/h | 23700m | 6.0m/s | -51.6°C | 3.5% | 0hPa | 2.7V | 00:00:00 | 01:48:39 | 00:00:00 | |
| DJ2DS-15 | 2026-09-02 00:37:05 | 54.91942 | -0.69161 | 103° | 16km/h | 23598m | 4.7m/s | -51.5°C | 3.5% | 0hPa | 2.7V | 00:00:00 | 01:48:19 | 00:00:00 | |
| DJ2DS-15 | 2026-09-02 00:36:45 | 54.91949 | -0.69300 | 99° | 18km/h | 23498m | 4.9m/s | -51.2°C | 3.4% | 0hPa | 2.7V | 00:00:00 | 01:47:59 | 00:00:00 | |
| DJ2DS-15 | 2026-09-02 00:36:44 | 54.91950 | -0.69308 | 90° | 18km/h | 23493m | 5.0m/s | -51.2°C | 0.6% | -1.0hPa | 2.5V | 00:00:00 | 00:00:00 | 00:00:00 | |
| DJ2DS-15 | 2026-09-02 00:36:25 | 54.91939 | -0.69465 | 101° | 16km/h | 23399m | 4.8m/s | -51.5°C | 3.4% | 0hPa | 2.5V | 00:00:00 | 01:47:39 | 00:00:00 | |
| DJ2DS-15 | 2026-09-02 00:36:08 | 54.91917 | -0.69583 | 112° | 9km/h | 23312m | 5.0m/s | -51.6°C | 0.6% | -1.0hPa | 2.5V | 00:00:00 | 00:00:00 | 00:00:00 | |
| DJ2DS-15 | 2026-09-02 00:36:05 | 54.91916 | -0.69593 | 22° | 9km/h | 23296m | 4.7m/s | -51.4°C | 3.5% | 0hPa | 2.5V | 00:00:00 | 01:47:19 | 00:00:00 | |
| DJ2DS-15 | 2026-09-02 00:35:45 | 54.91871 | -0.69625 | 58° | 13km/h | 23189m | 5.9m/s | -51.2°C | 3.3% | 0hPa | 2.5V | 00:00:00 | 01:46:59 | 08:30:00 | |
| DJ2DS-15 | 2026-09-02 00:35:25 | 54.91852 | -0.69732 | 51° | 15km/h | 23077m | 6.7m/s | -51.6°C | 3.5% | 0hPa | 2.5V | 00:00:00 | 01:46:39 | 00:00:00 | |
| DJ2DS-15 | 2026-09-02 00:35:05 | 54.91801 | -0.69830 | 56° | 20km/h | 22966m | 5.9m/s | -51.8°C | 3.6% | 0hPa | 2.5V | 00:00:00 | 01:46:19 | 00:00:00 | |
| DJ2DS-15 | 2026-09-02 00:34:45 | 54.91775 | -0.69993 | 68° | 22km/h | 22853m | 4.7m/s | -51.5°C | 3.5% | 0hPa | 2.5V | 00:00:00 | 01:45:59 | 00:00:00 | |
| DJ2DS-15 | 2026-09-02 00:34:25 | 54.91729 | -0.70175 | 68° | 26km/h | 22737m | 4.9m/s | -51.1°C | 3.4% | 0hPa | 0V | 00:00:00 | 01:45:39 | 00:00:00 | |
| DJ2DS-15 | 2026-09-02 00:34:05 | 54.91650 | -0.70351 | 61° | 13km/h | 22625m | 6.2m/s | -51.7°C | 3.5% | 0hPa | 0V | 00:00:00 | 01:45:19 | 00:00:00 | |
| DJ2DS-15 | 2026-09-02 00:33:45 | 54.91619 | -0.70446 | 78° | 16km/h | 22511m | 5.1m/s | 0°C | 0% | 0hPa | 0V | 00:00:00 | 01:44:59 | 00:00:00 | |
| DJ2DS-15 | 2026-09-02 00:33:44 | 54.91616 | -0.70457 | 46° | 13km/h | 22499m | 5.3m/s | -51.3°C | 0.6% | -1.0hPa | 0V | 00:00:00 | 00:00:00 | 00:00:00 | |
| DJ2DS-15 | 2026-09-02 00:33:25 | 54.91613 | -0.70587 | 99° | 20km/h | 22401m | 6.7m/s | 0°C | 0% | 0hPa | 0V | 00:00:00 | 01:44:39 | 00:00:00 | |
| DJ2DS-15 | 2026-09-02 00:33:08 | 54.91602 | -0.70734 | 66° | 16km/h | 22302m | 5.3m/s | -50.6°C | -1.0% | -1.0hPa | 0V | 00:00:00 | 00:00:00 | 00:00:00 | |
| DJ2DS-15 | 2026-09-02 00:33:05 | 54.91598 | -0.70748 | 58° | 22km/h | 22291m | 4.6m/s | 0°C | 0% | 0hPa | 0V | 00:00:00 | 01:44:19 | 00:00:00 | |
| DJ2DS-15 | 2026-09-02 00:32:40 | 54.91523 | -0.70953 | 42° | 22km/h | 22154m | 4.8m/s | 0°C | 0% | 0hPa | 0V | 00:00:00 | 01:43:54 | 00:00:00 |